sensor_id;sensor_type;location;lat;lon;timestamp;P1;durP1;ratioP1;P2;durP2;ratioP2
48861;SDS011;34681;49.188;-0.374;2022-12-05T00:00:57;44.33;;;26.80;;
48861;SDS011;34681;49.188;-0.374;2022-12-05T00:03:24;40.63;;;27.33;;
48861;SDS011;34681;49.188;-0.374;2022-12-05T00:05:50;39.27;;;26.73;;
48861;SDS011;34681;49.188;-0.374;2022-12-05T00:08:15;40.43;;;26.70;;
48861;SDS011;34681;49.188;-0.374;2022-12-05T00:10:41;37.73;;;26.10;;
48861;SDS011;34681;49.188;-0.374;2022-12-05T00:13:07;40.53;;;27.90;;
48861;SDS011;34681;49.188;-0.374;2022-12-05T00:15:39;43.40;;;27.93;;
48861;SDS011;34681;49.188;-0.374;2022-12-05T00:18:05;39.73;;;25.37;;
48861;SDS011;34681;49.188;-0.374;2022-12-05T00:20:31;39.80;;;27.23;;
48861;SDS011;34681;49.188;-0.374;2022-12-05T00:22:57;39.77;;;26.80;;
48861;SDS011;34681;49.188;-0.374;2022-12-05T00:25:22;39.47;;;25.07;;
48861;SDS011;34681;49.188;-0.374;2022-12-05T00:27:47;36.87;;;25.40;;
48861;SDS011;34681;49.188;-0.374;2022-12-05T00:30:13;43.83;;;25.37;;
48861;SDS011;34681;49.188;-0.374;2022-12-05T00:32:38;43.10;;;26.50;;
48861;SDS011;34681;49.188;-0.374;2022-12-05T00:35:04;39.50;;;26.10;;
48861;SDS011;34681;49.188;-0.374;2022-12-05T00:37:29;39.57;;;27.80;;
48861;SDS011;34681;49.188;-0.374;2022-12-05T00:39:55;41.30;;;25.63;;
48861;SDS011;34681;49.188;-0.374;2022-12-05T00:42:20;38.90;;;25.20;;
48861;SDS011;34681;49.188;-0.374;2022-12-05T00:44:47;40.90;;;27.30;;
48861;SDS011;34681;49.188;-0.374;2022-12-05T00:47:14;41.47;;;26.07;;
48861;SDS011;34681;49.188;-0.374;2022-12-05T00:49:40;39.87;;;26.00;;
48861;SDS011;34681;49.188;-0.374;2022-12-05T00:52:05;41.13;;;26.50;;
48861;SDS011;34681;49.188;-0.374;2022-12-05T00:54:30;40.60;;;25.70;;
48861;SDS011;34681;49.188;-0.374;2022-12-05T00:56:56;41.43;;;24.27;;
48861;SDS011;34681;49.188;-0.374;2022-12-05T00:59:21;36.70;;;24.03;;
48861;SDS011;34681;49.188;-0.374;2022-12-05T01:01:47;42.70;;;27.60;;
48861;SDS011;34681;49.188;-0.374;2022-12-05T01:04:15;36.10;;;25.13;;
48861;SDS011;34681;49.188;-0.374;2022-12-05T01:06:44;37.37;;;23.80;;
48861;SDS011;34681;49.188;-0.374;2022-12-05T01:09:10;36.80;;;22.07;;
48861;SDS011;34681;49.188;-0.374;2022-12-05T01:11:37;38.17;;;24.57;;
48861;SDS011;34681;49.188;-0.374;2022-12-05T01:14:03;34.77;;;23.93;;
48861;SDS011;34681;49.188;-0.374;2022-12-05T01:16:30;34.70;;;23.10;;
48861;SDS011;34681;49.188;-0.374;2022-12-05T01:18:58;38.83;;;24.53;;
48861;SDS011;34681;49.188;-0.374;2022-12-05T01:21:25;40.53;;;24.63;;
48861;SDS011;34681;49.188;-0.374;2022-12-05T01:23:50;35.90;;;24.03;;
48861;SDS011;34681;49.188;-0.374;2022-12-05T01:26:16;36.50;;;24.93;;
48861;SDS011;34681;49.188;-0.374;2022-12-05T01:28:43;37.60;;;25.07;;
48861;SDS011;34681;49.188;-0.374;2022-12-05T01:31:16;36.87;;;23.40;;
48861;SDS011;34681;49.188;-0.374;2022-12-05T01:33:48;35.80;;;24.10;;
48861;SDS011;34681;49.188;-0.374;2022-12-05T01:36:14;35.83;;;23.80;;
48861;SDS011;34681;49.188;-0.374;2022-12-05T01:38:40;35.20;;;23.57;;
48861;SDS011;34681;49.188;-0.374;2022-12-05T01:41:07;39.60;;;24.40;;
48861;SDS011;34681;49.188;-0.374;2022-12-05T01:43:55;38.67;;;24.47;;
48861;SDS011;34681;49.188;-0.374;2022-12-05T01:46:23;34.00;;;22.40;;
48861;SDS011;34681;49.188;-0.374;2022-12-05T01:48:49;31.27;;;21.93;;
48861;SDS011;34681;49.188;-0.374;2022-12-05T01:51:17;32.03;;;24.20;;
48861;SDS011;34681;49.188;-0.374;2022-12-05T01:53:43;36.53;;;25.50;;
48861;SDS011;34681;49.188;-0.374;2022-12-05T01:56:08;39.63;;;25.63;;
48861;SDS011;34681;49.188;-0.374;2022-12-05T01:58:35;41.90;;;26.70;;
48861;SDS011;34681;49.188;-0.374;2022-12-05T02:01:02;38.47;;;26.50;;
48861;SDS011;34681;49.188;-0.374;2022-12-05T02:03:28;38.67;;;26.60;;
48861;SDS011;34681;49.188;-0.374;2022-12-05T02:05:55;36.80;;;23.00;;
48861;SDS011;34681;49.188;-0.374;2022-12-05T02:08:22;40.77;;;26.90;;
48861;SDS011;34681;49.188;-0.374;2022-12-05T02:10:49;32.20;;;23.73;;
48861;SDS011;34681;49.188;-0.374;2022-12-05T02:24:51;37.30;;;24.90;;
48861;SDS011;34681;49.188;-0.374;2022-12-05T02:30:27;34.90;;;23.30;;
48861;SDS011;34681;49.188;-0.374;2022-12-05T02:33:05;34.83;;;24.73;;
48861;SDS011;34681;49.188;-0.374;2022-12-05T02:35:50;36.53;;;25.40;;
48861;SDS011;34681;49.188;-0.374;2022-12-05T02:38:33;38.63;;;25.43;;
48861;SDS011;34681;49.188;-0.374;2022-12-05T02:44:06;36.80;;;25.33;;
48861;SDS011;34681;49.188;-0.374;2022-12-05T02:46:54;40.07;;;29.53;;
48861;SDS011;34681;49.188;-0.374;2022-12-05T02:49:24;43.80;;;27.80;;
48861;SDS011;34681;49.188;-0.374;2022-12-05T02:51:56;39.43;;;27.87;;
48861;SDS011;34681;49.188;-0.374;2022-12-05T02:54:23;36.90;;;26.33;;
48861;SDS011;34681;49.188;-0.374;2022-12-05T02:56:52;36.33;;;25.50;;
48861;SDS011;34681;49.188;-0.374;2022-12-05T02:59:18;34.17;;;24.00;;
48861;SDS011;34681;49.188;-0.374;2022-12-05T03:01:44;36.60;;;24.27;;
48861;SDS011;34681;49.188;-0.374;2022-12-05T03:04:14;37.33;;;24.20;;
48861;SDS011;34681;49.188;-0.374;2022-12-05T03:09:19;37.20;;;26.43;;
48861;SDS011;34681;49.188;-0.374;2022-12-05T03:11:52;42.43;;;27.60;;
48861;SDS011;34681;49.188;-0.374;2022-12-05T03:14:28;39.43;;;26.83;;
48861;SDS011;34681;49.188;-0.374;2022-12-05T03:16:57;35.63;;;23.90;;
48861;SDS011;34681;49.188;-0.374;2022-12-05T03:19:27;35.63;;;25.93;;
48861;SDS011;34681;49.188;-0.374;2022-12-05T03:22:08;39.03;;;24.70;;
48861;SDS011;34681;49.188;-0.374;2022-12-05T03:24:39;39.83;;;27.27;;
48861;SDS011;34681;49.188;-0.374;2022-12-05T03:29:58;40.83;;;29.13;;
48861;SDS011;34681;49.188;-0.374;2022-12-05T03:35:22;40.97;;;27.57;;
48861;SDS011;34681;49.188;-0.374;2022-12-05T03:38:55;36.90;;;25.43;;
48861;SDS011;34681;49.188;-0.374;2022-12-05T03:43:59;38.50;;;24.47;;
48861;SDS011;34681;49.188;-0.374;2022-12-05T03:46:37;33.83;;;22.77;;
48861;SDS011;34681;49.188;-0.374;2022-12-05T03:49:25;34.80;;;24.47;;
48861;SDS011;34681;49.188;-0.374;2022-12-05T03:52:02;38.07;;;26.77;;
48861;SDS011;34681;49.188;-0.374;2022-12-05T03:54:36;38.73;;;26.60;;
48861;SDS011;34681;49.188;-0.374;2022-12-05T03:57:22;33.90;;;22.97;;
48861;SDS011;34681;49.188;-0.374;2022-12-05T04:00:07;35.17;;;24.50;;
48861;SDS011;34681;49.188;-0.374;2022-12-05T04:05:11;39.47;;;26.23;;
48861;SDS011;34681;49.188;-0.374;2022-12-05T04:07:42;37.07;;;24.67;;
48861;SDS011;34681;49.188;-0.374;2022-12-05T04:10:14;35.30;;;24.27;;
48861;SDS011;34681;49.188;-0.374;2022-12-05T04:12:44;37.10;;;25.50;;
48861;SDS011;34681;49.188;-0.374;2022-12-05T04:15:15;32.43;;;24.20;;
48861;SDS011;34681;49.188;-0.374;2022-12-05T04:17:50;32.00;;;22.73;;
48861;SDS011;34681;49.188;-0.374;2022-12-05T04:20:26;35.67;;;24.60;;
48861;SDS011;34681;49.188;-0.374;2022-12-05T04:23:11;30.20;;;21.43;;
48861;SDS011;34681;49.188;-0.374;2022-12-05T04:28:26;37.80;;;23.70;;
48861;SDS011;34681;49.188;-0.374;2022-12-05T04:31:02;32.50;;;22.30;;
48861;SDS011;34681;49.188;-0.374;2022-12-05T04:38:49;29.63;;;21.83;;
48861;SDS011;34681;49.188;-0.374;2022-12-05T04:41:27;32.87;;;22.63;;
48861;SDS011;34681;49.188;-0.374;2022-12-05T04:43:59;33.10;;;23.80;;
48861;SDS011;34681;49.188;-0.374;2022-12-05T04:46:30;32.20;;;23.00;;
48861;SDS011;34681;49.188;-0.374;2022-12-05T04:48:59;38.20;;;26.03;;
48861;SDS011;34681;49.188;-0.374;2022-12-05T04:51:29;33.73;;;22.53;;
48861;SDS011;34681;49.188;-0.374;2022-12-05T04:53:59;29.67;;;21.73;;
48861;SDS011;34681;49.188;-0.374;2022-12-05T04:56:33;36.73;;;22.60;;
48861;SDS011;34681;49.188;-0.374;2022-12-05T04:59:01;31.40;;;23.03;;
48861;SDS011;34681;49.188;-0.374;2022-12-05T05:01:41;26.70;;;21.17;;
48861;SDS011;34681;49.188;-0.374;2022-12-05T05:04:21;28.67;;;21.37;;
48861;SDS011;34681;49.188;-0.374;2022-12-05T05:06:53;27.20;;;21.43;;
48861;SDS011;34681;49.188;-0.374;2022-12-05T05:09:18;31.93;;;23.30;;
48861;SDS011;34681;49.188;-0.374;2022-12-05T05:11:44;34.50;;;23.20;;
48861;SDS011;34681;49.188;-0.374;2022-12-05T05:14:09;34.50;;;22.60;;
48861;SDS011;34681;49.188;-0.374;2022-12-05T05:16:35;33.97;;;22.20;;
48861;SDS011;34681;49.188;-0.374;2022-12-05T05:19:03;35.20;;;22.30;;
48861;SDS011;34681;49.188;-0.374;2022-12-05T05:21:30;31.80;;;22.63;;
48861;SDS011;34681;49.188;-0.374;2022-12-05T05:23:56;31.80;;;23.33;;
48861;SDS011;34681;49.188;-0.374;2022-12-05T05:26:22;35.40;;;24.30;;
48861;SDS011;34681;49.188;-0.374;2022-12-05T05:28:49;34.13;;;24.33;;
48861;SDS011;34681;49.188;-0.374;2022-12-05T05:31:15;34.77;;;24.20;;
48861;SDS011;34681;49.188;-0.374;2022-12-05T05:33:41;30.40;;;22.30;;
48861;SDS011;34681;49.188;-0.374;2022-12-05T05:36:08;31.43;;;23.53;;
48861;SDS011;34681;49.188;-0.374;2022-12-05T05:38:42;31.83;;;22.93;;
48861;SDS011;34681;49.188;-0.374;2022-12-05T05:41:12;31.60;;;22.40;;
48861;SDS011;34681;49.188;-0.374;2022-12-05T05:43:43;35.07;;;23.17;;
48861;SDS011;34681;49.188;-0.374;2022-12-05T05:46:09;33.97;;;23.10;;
48861;SDS011;34681;49.188;-0.374;2022-12-05T05:48:35;34.67;;;23.50;;
48861;SDS011;34681;49.188;-0.374;2022-12-05T05:51:02;35.03;;;24.57;;
48861;SDS011;34681;49.188;-0.374;2022-12-05T05:53:29;33.67;;;24.10;;
48861;SDS011;34681;49.188;-0.374;2022-12-05T05:55:55;35.67;;;23.90;;
48861;SDS011;34681;49.188;-0.374;2022-12-05T05:58:20;35.50;;;24.90;;
48861;SDS011;34681;49.188;-0.374;2022-12-05T06:00:46;37.80;;;26.03;;
48861;SDS011;34681;49.188;-0.374;2022-12-05T06:03:12;34.43;;;24.23;;
48861;SDS011;34681;49.188;-0.374;2022-12-05T06:05:37;35.53;;;23.17;;
48861;SDS011;34681;49.188;-0.374;2022-12-05T06:08:03;32.70;;;23.70;;
48861;SDS011;34681;49.188;-0.374;2022-12-05T06:10:29;33.70;;;23.20;;
48861;SDS011;34681;49.188;-0.374;2022-12-05T06:12:54;32.87;;;23.37;;
48861;SDS011;34681;49.188;-0.374;2022-12-05T06:15:23;31.53;;;22.33;;
48861;SDS011;34681;49.188;-0.374;2022-12-05T06:17:49;31.10;;;22.57;;
48861;SDS011;34681;49.188;-0.374;2022-12-05T06:20:14;32.43;;;23.23;;
48861;SDS011;34681;49.188;-0.374;2022-12-05T06:22:40;34.93;;;24.80;;
48861;SDS011;34681;49.188;-0.374;2022-12-05T06:25:06;29.17;;;20.97;;
48861;SDS011;34681;49.188;-0.374;2022-12-05T06:27:32;32.00;;;20.80;;
48861;SDS011;34681;49.188;-0.374;2022-12-05T06:29:58;30.63;;;22.07;;
48861;SDS011;34681;49.188;-0.374;2022-12-05T06:32:23;34.20;;;23.80;;
48861;SDS011;34681;49.188;-0.374;2022-12-05T06:34:49;31.53;;;22.03;;
48861;SDS011;34681;49.188;-0.374;2022-12-05T06:37:14;28.33;;;20.77;;
48861;SDS011;34681;49.188;-0.374;2022-12-05T06:39:40;33.03;;;23.30;;
48861;SDS011;34681;49.188;-0.374;2022-12-05T06:42:05;33.40;;;24.30;;
48861;SDS011;34681;49.188;-0.374;2022-12-05T06:44:30;39.30;;;26.87;;
48861;SDS011;34681;49.188;-0.374;2022-12-05T06:46:56;38.37;;;25.80;;
48861;SDS011;34681;49.188;-0.374;2022-12-05T06:49:22;35.20;;;23.63;;
48861;SDS011;34681;49.188;-0.374;2022-12-05T06:51:50;33.07;;;22.87;;
48861;SDS011;34681;49.188;-0.374;2022-12-05T06:54:17;31.77;;;24.43;;
48861;SDS011;34681;49.188;-0.374;2022-12-05T06:56:42;33.93;;;22.57;;
48861;SDS011;34681;49.188;-0.374;2022-12-05T06:59:07;36.70;;;24.90;;
48861;SDS011;34681;49.188;-0.374;2022-12-05T07:01:32;36.17;;;22.90;;
48861;SDS011;34681;49.188;-0.374;2022-12-05T07:04:18;34.33;;;24.30;;
48861;SDS011;34681;49.188;-0.374;2022-12-05T07:06:47;39.47;;;24.97;;
48861;SDS011;34681;49.188;-0.374;2022-12-05T07:09:13;32.90;;;23.40;;
48861;SDS011;34681;49.188;-0.374;2022-12-05T07:11:39;27.90;;;22.30;;
48861;SDS011;34681;49.188;-0.374;2022-12-05T07:14:04;35.23;;;22.43;;
48861;SDS011;34681;49.188;-0.374;2022-12-05T07:16:31;33.27;;;23.50;;
48861;SDS011;34681;49.188;-0.374;2022-12-05T07:18:56;32.30;;;23.90;;
48861;SDS011;34681;49.188;-0.374;2022-12-05T07:21:22;33.73;;;21.37;;
48861;SDS011;34681;49.188;-0.374;2022-12-05T07:23:48;36.13;;;24.23;;
48861;SDS011;34681;49.188;-0.374;2022-12-05T07:26:16;34.20;;;21.77;;
48861;SDS011;34681;49.188;-0.374;2022-12-05T07:28:43;38.77;;;28.00;;
48861;SDS011;34681;49.188;-0.374;2022-12-05T07:31:09;36.10;;;24.03;;
48861;SDS011;34681;49.188;-0.374;2022-12-05T07:33:36;38.07;;;25.00;;
48861;SDS011;34681;49.188;-0.374;2022-12-05T07:36:07;33.70;;;23.80;;
48861;SDS011;34681;49.188;-0.374;2022-12-05T07:38:34;37.33;;;25.40;;
48861;SDS011;34681;49.188;-0.374;2022-12-05T07:41:04;41.23;;;26.20;;
48861;SDS011;34681;49.188;-0.374;2022-12-05T07:43:34;38.70;;;26.03;;
48861;SDS011;34681;49.188;-0.374;2022-12-05T07:46:00;33.47;;;23.20;;
48861;SDS011;34681;49.188;-0.374;2022-12-05T07:48:29;42.33;;;26.90;;
48861;SDS011;34681;49.188;-0.374;2022-12-05T07:50:57;40.03;;;25.80;;
48861;SDS011;34681;49.188;-0.374;2022-12-05T07:53:24;37.67;;;25.80;;
48861;SDS011;34681;49.188;-0.374;2022-12-05T07:55:50;36.73;;;24.83;;
48861;SDS011;34681;49.188;-0.374;2022-12-05T07:58:15;37.20;;;25.00;;
48861;SDS011;34681;49.188;-0.374;2022-12-05T08:00:40;35.40;;;22.93;;
48861;SDS011;34681;49.188;-0.374;2022-12-05T08:03:06;32.23;;;25.40;;
48861;SDS011;34681;49.188;-0.374;2022-12-05T08:05:32;36.13;;;25.23;;
48861;SDS011;34681;49.188;-0.374;2022-12-05T08:07:57;38.73;;;26.40;;
48861;SDS011;34681;49.188;-0.374;2022-12-05T08:10:23;57.63;;;30.83;;
48861;SDS011;34681;49.188;-0.374;2022-12-05T08:12:48;122.17;;;47.40;;
48861;SDS011;34681;49.188;-0.374;2022-12-05T08:15:14;104.97;;;45.73;;
48861;SDS011;34681;49.188;-0.374;2022-12-05T08:17:39;90.90;;;40.27;;
48861;SDS011;34681;49.188;-0.374;2022-12-05T08:20:04;56.50;;;39.00;;
48861;SDS011;34681;49.188;-0.374;2022-12-05T08:22:30;46.63;;;34.50;;
48861;SDS011;34681;49.188;-0.374;2022-12-05T08:24:56;43.13;;;29.53;;
48861;SDS011;34681;49.188;-0.374;2022-12-05T08:27:21;43.20;;;29.07;;
48861;SDS011;34681;49.188;-0.374;2022-12-05T08:29:47;41.50;;;27.53;;
48861;SDS011;34681;49.188;-0.374;2022-12-05T08:32:12;34.07;;;24.53;;
48861;SDS011;34681;49.188;-0.374;2022-12-05T08:34:38;39.07;;;25.63;;
48861;SDS011;34681;49.188;-0.374;2022-12-05T08:37:03;41.30;;;27.20;;
48861;SDS011;34681;49.188;-0.374;2022-12-05T08:39:28;40.80;;;29.77;;
48861;SDS011;34681;49.188;-0.374;2022-12-05T08:41:54;37.40;;;26.60;;
48861;SDS011;34681;49.188;-0.374;2022-12-05T08:44:19;43.47;;;28.33;;
48861;SDS011;34681;49.188;-0.374;2022-12-05T08:46:45;41.10;;;28.17;;
48861;SDS011;34681;49.188;-0.374;2022-12-05T08:49:13;42.70;;;28.03;;
48861;SDS011;34681;49.188;-0.374;2022-12-05T08:51:39;40.80;;;27.90;;
48861;SDS011;34681;49.188;-0.374;2022-12-05T08:54:06;51.40;;;33.07;;
48861;SDS011;34681;49.188;-0.374;2022-12-05T08:56:31;46.37;;;28.40;;
48861;SDS011;34681;49.188;-0.374;2022-12-05T08:58:57;39.50;;;27.40;;
48861;SDS011;34681;49.188;-0.374;2022-12-05T09:01:23;43.53;;;28.40;;
48861;SDS011;34681;49.188;-0.374;2022-12-05T09:03:55;40.80;;;26.43;;
48861;SDS011;34681;49.188;-0.374;2022-12-05T09:06:22;44.63;;;29.60;;
48861;SDS011;34681;49.188;-0.374;2022-12-05T09:08:52;47.93;;;29.73;;
48861;SDS011;34681;49.188;-0.374;2022-12-05T09:11:20;46.53;;;30.13;;
48861;SDS011;34681;49.188;-0.374;2022-12-05T09:13:48;44.30;;;30.00;;
48861;SDS011;34681;49.188;-0.374;2022-12-05T09:16:16;43.13;;;29.30;;
48861;SDS011;34681;49.188;-0.374;2022-12-05T09:18:44;47.30;;;30.83;;
48861;SDS011;34681;49.188;-0.374;2022-12-05T09:21:43;43.90;;;30.57;;
48861;SDS011;34681;49.188;-0.374;2022-12-05T09:24:02;43.87;;;30.37;;
48861;SDS011;34681;49.188;-0.374;2022-12-05T09:26:27;51.27;;;32.47;;
48861;SDS011;34681;49.188;-0.374;2022-12-05T09:28:54;49.23;;;29.70;;
48861;SDS011;34681;49.188;-0.374;2022-12-05T09:31:20;43.60;;;29.13;;
48861;SDS011;34681;49.188;-0.374;2022-12-05T09:33:49;43.40;;;30.20;;
48861;SDS011;34681;49.188;-0.374;2022-12-05T09:36:23;44.30;;;28.70;;
48861;SDS011;34681;49.188;-0.374;2022-12-05T09:38:50;41.77;;;27.87;;
48861;SDS011;34681;49.188;-0.374;2022-12-05T09:48:49;41.83;;;29.93;;
48861;SDS011;34681;49.188;-0.374;2022-12-05T09:51:16;37.73;;;27.57;;
48861;SDS011;34681;49.188;-0.374;2022-12-05T09:53:41;41.90;;;28.20;;
48861;SDS011;34681;49.188;-0.374;2022-12-05T09:58:39;42.20;;;28.03;;
48861;SDS011;34681;49.188;-0.374;2022-12-05T10:04:01;49.77;;;33.30;;
48861;SDS011;34681;49.188;-0.374;2022-12-05T10:06:31;52.50;;;34.70;;
48861;SDS011;34681;49.188;-0.374;2022-12-05T10:09:19;43.20;;;30.70;;
48861;SDS011;34681;49.188;-0.374;2022-12-05T10:12:17;55.80;;;36.23;;
48861;SDS011;34681;49.188;-0.374;2022-12-05T10:17:33;44.60;;;30.30;;
48861;SDS011;34681;49.188;-0.374;2022-12-05T10:22:47;68.57;;;34.90;;
48861;SDS011;34681;49.188;-0.374;2022-12-05T10:25:17;46.60;;;33.73;;
48861;SDS011;34681;49.188;-0.374;2022-12-05T10:27:55;56.07;;;34.37;;
48861;SDS011;34681;49.188;-0.374;2022-12-05T10:30:24;46.03;;;29.70;;
48861;SDS011;34681;49.188;-0.374;2022-12-05T10:33:05;50.30;;;31.67;;
48861;SDS011;34681;49.188;-0.374;2022-12-05T10:35:39;43.93;;;31.00;;
48861;SDS011;34681;49.188;-0.374;2022-12-05T10:38:08;47.37;;;31.37;;
48861;SDS011;34681;49.188;-0.374;2022-12-05T10:40:45;44.60;;;30.43;;
48861;SDS011;34681;49.188;-0.374;2022-12-05T10:43:17;50.40;;;34.17;;
48861;SDS011;34681;49.188;-0.374;2022-12-05T10:45:54;47.53;;;30.60;;
48861;SDS011;34681;49.188;-0.374;2022-12-05T10:48:21;46.23;;;32.57;;
48861;SDS011;34681;49.188;-0.374;2022-12-05T10:50:56;48.67;;;33.30;;
48861;SDS011;34681;49.188;-0.374;2022-12-05T10:53:25;43.73;;;31.30;;
48861;SDS011;34681;49.188;-0.374;2022-12-05T10:56:04;45.57;;;32.33;;
48861;SDS011;34681;49.188;-0.374;2022-12-05T10:59:08;47.60;;;29.87;;
48861;SDS011;34681;49.188;-0.374;2022-12-05T11:01:35;43.20;;;30.50;;
48861;SDS011;34681;49.188;-0.374;2022-12-05T11:04:05;42.97;;;29.90;;
48861;SDS011;34681;49.188;-0.374;2022-12-05T11:06:47;39.70;;;28.40;;
48861;SDS011;34681;49.188;-0.374;2022-12-05T11:09:19;42.20;;;29.13;;
48861;SDS011;34681;49.188;-0.374;2022-12-05T11:14:28;45.10;;;29.70;;
48861;SDS011;34681;49.188;-0.374;2022-12-05T11:16:54;40.77;;;29.67;;
48861;SDS011;34681;49.188;-0.374;2022-12-05T11:19:25;40.00;;;28.20;;
48861;SDS011;34681;49.188;-0.374;2022-12-05T11:21:51;47.73;;;28.83;;
48861;SDS011;34681;49.188;-0.374;2022-12-05T11:24:19;43.00;;;29.60;;
48861;SDS011;34681;49.188;-0.374;2022-12-05T11:26:56;40.33;;;29.40;;
48861;SDS011;34681;49.188;-0.374;2022-12-05T11:29:32;44.23;;;31.83;;
48861;SDS011;34681;49.188;-0.374;2022-12-05T11:32:03;45.00;;;33.23;;
48861;SDS011;34681;49.188;-0.374;2022-12-05T11:34:32;41.50;;;28.83;;
48861;SDS011;34681;49.188;-0.374;2022-12-05T11:37:21;40.70;;;28.63;;
48861;SDS011;34681;49.188;-0.374;2022-12-05T11:39:55;40.53;;;28.00;;
48861;SDS011;34681;49.188;-0.374;2022-12-05T11:42:22;42.73;;;29.87;;
48861;SDS011;34681;49.188;-0.374;2022-12-05T11:45:04;47.80;;;30.47;;
48861;SDS011;34681;49.188;-0.374;2022-12-05T11:50:27;44.63;;;29.23;;
48861;SDS011;34681;49.188;-0.374;2022-12-05T11:55:49;46.37;;;31.03;;
48861;SDS011;34681;49.188;-0.374;2022-12-05T12:01:37;43.73;;;31.50;;
48861;SDS011;34681;49.188;-0.374;2022-12-05T12:28:05;48.23;;;33.57;;
48861;SDS011;34681;49.188;-0.374;2022-12-05T12:30:47;47.73;;;34.43;;
48861;SDS011;34681;49.188;-0.374;2022-12-05T12:36:30;43.77;;;31.70;;
48861;SDS011;34681;49.188;-0.374;2022-12-05T12:44:49;47.20;;;33.00;;
48861;SDS011;34681;49.188;-0.374;2022-12-05T12:50:20;44.67;;;30.60;;
48861;SDS011;34681;49.188;-0.374;2022-12-05T12:55:23;49.53;;;33.93;;
48861;SDS011;34681;49.188;-0.374;2022-12-05T12:58:06;55.97;;;35.27;;
48861;SDS011;34681;49.188;-0.374;2022-12-05T13:03:19;48.97;;;33.33;;
48861;SDS011;34681;49.188;-0.374;2022-12-05T13:05:54;56.57;;;38.53;;
48861;SDS011;34681;49.188;-0.374;2022-12-05T13:10:52;57.10;;;37.53;;
48861;SDS011;34681;49.188;-0.374;2022-12-05T13:13:20;60.53;;;36.40;;
48861;SDS011;34681;49.188;-0.374;2022-12-05T13:15:50;50.97;;;36.07;;
48861;SDS011;34681;49.188;-0.374;2022-12-05T13:18:22;56.93;;;36.50;;
48861;SDS011;34681;49.188;-0.374;2022-12-05T13:20:51;57.30;;;38.30;;
48861;SDS011;34681;49.188;-0.374;2022-12-05T13:23:40;55.10;;;34.90;;
48861;SDS011;34681;49.188;-0.374;2022-12-05T13:26:11;48.37;;;32.00;;
48861;SDS011;34681;49.188;-0.374;2022-12-05T13:28:38;51.00;;;34.57;;
48861;SDS011;34681;49.188;-0.374;2022-12-05T13:31:13;48.43;;;32.90;;
48861;SDS011;34681;49.188;-0.374;2022-12-05T13:33:47;47.70;;;31.40;;
48861;SDS011;34681;49.188;-0.374;2022-12-05T13:36:15;48.10;;;33.73;;
48861;SDS011;34681;49.188;-0.374;2022-12-05T13:42:03;51.17;;;32.97;;
48861;SDS011;34681;49.188;-0.374;2022-12-05T13:50:33;53.00;;;35.33;;
48861;SDS011;34681;49.188;-0.374;2022-12-05T13:53:24;47.37;;;35.03;;
48861;SDS011;34681;49.188;-0.374;2022-12-05T14:06:54;52.80;;;34.47;;
48861;SDS011;34681;49.188;-0.374;2022-12-05T14:17:39;57.23;;;39.00;;
48861;SDS011;34681;49.188;-0.374;2022-12-05T14:42:22;49.90;;;32.07;;
48861;SDS011;34681;49.188;-0.374;2022-12-05T14:44:52;50.63;;;34.13;;
48861;SDS011;34681;49.188;-0.374;2022-12-05T14:47:25;47.97;;;34.13;;
48861;SDS011;34681;49.188;-0.374;2022-12-05T14:49:58;56.97;;;36.10;;
48861;SDS011;34681;49.188;-0.374;2022-12-05T14:52:44;53.03;;;33.83;;
48861;SDS011;34681;49.188;-0.374;2022-12-05T14:55:45;56.07;;;32.30;;
48861;SDS011;34681;49.188;-0.374;2022-12-05T15:06:31;40.03;;;29.70;;
48861;SDS011;34681;49.188;-0.374;2022-12-05T15:09:00;45.13;;;32.13;;
48861;SDS011;34681;49.188;-0.374;2022-12-05T15:11:29;43.07;;;30.70;;
48861;SDS011;34681;49.188;-0.374;2022-12-05T15:14:00;45.93;;;33.80;;
48861;SDS011;34681;49.188;-0.374;2022-12-05T15:16:42;43.60;;;30.17;;
48861;SDS011;34681;49.188;-0.374;2022-12-05T15:19:32;42.27;;;28.67;;
48861;SDS011;34681;49.188;-0.374;2022-12-05T15:22:01;46.90;;;30.90;;
48861;SDS011;34681;49.188;-0.374;2022-12-05T15:24:35;42.20;;;30.30;;
48861;SDS011;34681;49.188;-0.374;2022-12-05T15:27:02;33.80;;;26.70;;
48861;SDS011;34681;49.188;-0.374;2022-12-05T15:29:29;46.23;;;31.23;;
48861;SDS011;34681;49.188;-0.374;2022-12-05T15:38:01;50.37;;;31.10;;
48861;SDS011;34681;49.188;-0.374;2022-12-05T15:40:46;45.30;;;32.17;;
48861;SDS011;34681;49.188;-0.374;2022-12-05T15:45:49;46.57;;;29.43;;
48861;SDS011;34681;49.188;-0.374;2022-12-05T15:48:14;39.93;;;29.97;;
48861;SDS011;34681;49.188;-0.374;2022-12-05T15:50:47;47.63;;;28.70;;
48861;SDS011;34681;49.188;-0.374;2022-12-05T15:55:54;37.53;;;27.30;;
48861;SDS011;34681;49.188;-0.374;2022-12-05T15:58:23;40.40;;;26.53;;
48861;SDS011;34681;49.188;-0.374;2022-12-05T16:00:52;38.43;;;30.80;;
48861;SDS011;34681;49.188;-0.374;2022-12-05T16:03:23;33.73;;;24.27;;
48861;SDS011;34681;49.188;-0.374;2022-12-05T16:05:59;36.57;;;24.10;;
48861;SDS011;34681;49.188;-0.374;2022-12-05T16:08:29;36.37;;;25.03;;
48861;SDS011;34681;49.188;-0.374;2022-12-05T16:11:11;37.53;;;25.50;;
48861;SDS011;34681;49.188;-0.374;2022-12-05T16:13:44;35.90;;;26.73;;
48861;SDS011;34681;49.188;-0.374;2022-12-05T16:16:20;31.07;;;24.07;;
48861;SDS011;34681;49.188;-0.374;2022-12-05T16:18:57;35.63;;;24.90;;
48861;SDS011;34681;49.188;-0.374;2022-12-05T16:21:37;38.47;;;25.70;;
48861;SDS011;34681;49.188;-0.374;2022-12-05T16:24:16;44.90;;;29.67;;
48861;SDS011;34681;49.188;-0.374;2022-12-05T16:26:49;38.53;;;28.67;;
48861;SDS011;34681;49.188;-0.374;2022-12-05T16:29:29;36.37;;;26.50;;
48861;SDS011;34681;49.188;-0.374;2022-12-05T16:31:57;42.50;;;31.53;;
48861;SDS011;34681;49.188;-0.374;2022-12-05T16:34:24;44.03;;;30.80;;
48861;SDS011;34681;49.188;-0.374;2022-12-05T16:36:51;46.77;;;31.07;;
48861;SDS011;34681;49.188;-0.374;2022-12-05T16:39:20;42.00;;;28.13;;
48861;SDS011;34681;49.188;-0.374;2022-12-05T16:41:46;38.30;;;28.63;;
48861;SDS011;34681;49.188;-0.374;2022-12-05T16:47:24;35.17;;;26.27;;
48861;SDS011;34681;49.188;-0.374;2022-12-05T16:49:51;34.23;;;26.13;;
48861;SDS011;34681;49.188;-0.374;2022-12-05T16:52:16;42.87;;;27.77;;
48861;SDS011;34681;49.188;-0.374;2022-12-05T16:54:44;32.77;;;23.43;;
48861;SDS011;34681;49.188;-0.374;2022-12-05T16:57:14;25.37;;;20.40;;
48861;SDS011;34681;49.188;-0.374;2022-12-05T16:59:40;30.50;;;23.00;;
48861;SDS011;34681;49.188;-0.374;2022-12-05T17:02:11;30.43;;;21.30;;
48861;SDS011;34681;49.188;-0.374;2022-12-05T17:04:39;21.73;;;17.63;;
48861;SDS011;34681;49.188;-0.374;2022-12-05T17:07:04;18.13;;;14.77;;
48861;SDS011;34681;49.188;-0.374;2022-12-05T17:09:31;20.33;;;17.50;;
48861;SDS011;34681;49.188;-0.374;2022-12-05T17:12:01;18.70;;;16.70;;
48861;SDS011;34681;49.188;-0.374;2022-12-05T17:14:46;17.77;;;15.97;;
48861;SDS011;34681;49.188;-0.374;2022-12-05T17:17:12;19.40;;;15.73;;
48861;SDS011;34681;49.188;-0.374;2022-12-05T17:19:39;16.07;;;14.37;;
48861;SDS011;34681;49.188;-0.374;2022-12-05T17:22:05;16.50;;;14.60;;
48861;SDS011;34681;49.188;-0.374;2022-12-05T17:24:30;20.23;;;15.20;;
48861;SDS011;34681;49.188;-0.374;2022-12-05T17:26:57;18.30;;;15.33;;
48861;SDS011;34681;49.188;-0.374;2022-12-05T17:29:22;15.70;;;13.80;;
48861;SDS011;34681;49.188;-0.374;2022-12-05T17:31:48;16.10;;;14.30;;